Details From LJLJ - Ljubljana
To TNCM - St Maarten - Princess Juliana Intl
Flight Number -
Tags Decoded
Created
Modified
Stats Distance 4,140 nm / 7,667 km
Max Altitude 0 ft / 0 m
Waypoints 7
Social Downloads 1
Likes 0
Share VATSIM

Download

Looking for another format? Having issues loading an existing format? Contact us
Advertisement - Login to hide

Notes

Decoded

Route

LJLJ CALDO UXANA R2459 LPAZ PJD TNCM

ID Type Via Altitude Latitude Longitude Leg Dist Tot Dist Heading (true) Name
O LJLJ APT - 0 ft / 0 m 46.23249˚ 14.44039˚ - 0 nm - -
CALDO FIX - 0 ft / 0 m 45.90888˚ 8.86305˚ 233 nm 233 nm 267° / 263° -
UXANA FIX - 0 ft / 0 m 45.27639˚ 3.17917˚ 241 nm 474 nm 263° / 259° -
R2459 FIX - 0 ft / 0 m 36.98500˚ -25.17333˚ 1367 nm 1841 nm 259° / 240° -
LPAZ APT - 0 ft / 0 m 36.97389˚ -25.17583˚ 0 nm 1842 nm 190° / 190° -
PJD NDB - 0 ft / 0 m 18.03833˚ -63.11833˚ 2297 nm 4139 nm 251° / 233° ST MAARTEN NDB
O TNCM APT - 0 ft / 0 m 18.03937˚ -63.11961˚ 0 nm 4139 nm 310° / 310° -

Altitude Profile

Advertisement - Login to hide

Weather


0- 5 10 15 20 25 30 35+ Temperature / ° C

Clouds and Precipitation
Forecast for 2017-12-13 12:00 UTC. Updated 8 minutes ago

Ground ~20,000 ft ~40,000 ft Winds

LJLJ

Details ICAO LJLJ (LJU)
Name LJUBLJANA
Region Slovenia
Timezone Europe/Ljubljana (UTC+1.0)
Stats Elevation 1,273 ft / 388 m (AMSL)
Location 46.223685° 14.457608°
Runways 1
Magnetic Variation 3.661° E

METAR

LJLJ 130700Z 33002KT 2000 SN BR BKN005 OVC010 00/00 Q1020 R30/29//95 TEMPO 1200 SN VV005

Decode

TAF

TAF AMD LJLJ 130615Z 1306/1406 12005KT 3500 -SN BR BKN010 OVC020 TEMPO 1306/1316 10010KT 0800 SN VV005 BECMG 1316/1318 7000 NSW TEMPO 1318/1403 3500 -SNRA BR SCT010 OVC020

Decode

Departure Runways

ID Width Length Bearing (true) Bearing (mag) Surface Threshold Offset Overrun Length
13 148 ft / 45 m 10,811 ft / 3,295 m 126.47° 122.81° Asphalt 0 ft / 0 m 0 ft / 0 m
31 148 ft / 45 m 10,811 ft / 3,295 m 306.49° 302.83° Asphalt 0 ft / 0 m 0 ft / 0 m

TNCM

Details ICAO TNCM (SXM)
Name St Maarten - Princess Juliana Intl
Region Caribbean Netherlands, Aruba, Curaçao, Sint Maarten
Timezone Unknown (UTC+0.0)
Stats Elevation 12 ft / 4 m (AMSL)
Location 18.040889° -63.108974°
Runways 1
Magnetic Variation 14.325° W

METAR

Not found

TAF

TAF TNCM 130530Z 1306/1406 VRB05KT P6SM FEW018 FM131300 13010KT P6SM FEW020

Decode

Destination Runways

ID Width Length Bearing (true) Bearing (mag) Surface Threshold Offset Overrun Length
10 148 ft / 45 m 7,464 ft / 2,275 m 81.43° 95.75° Asphalt 0 ft / 0 m 151 ft / 46 m
28 148 ft / 45 m 7,464 ft / 2,275 m 261.44° 275.76° Asphalt 397 ft / 121 m 0 ft / 0 m